^^
Meteo Knjazevac Station Historical Data
Daily Summary for July 1, 2021 Units:  English    Metric   Both
Daily Weekly Monthly Yearly Custom
  High: Low: Average:
Temperature: 72.9 °F 54.9 °F 62.8 °F
Dew Point: 58.6 °F 51.7 °F 55.2 °F
Humidity: 91% 59% 77%
Wind Speed: 12mph 0mph 3.6mph
Wind Gust: 20mph - -
Wind- - WSW
Pressure: 30.15 in 30.10 in -
Precipitation: 0.00 in    
Historical Graphs
 
 
Tabular Data for July 1, 2021
Time Temperature Dew Point Pressure Wind Wind Speed Wind Gust Humidity Rainfall Rate (Hourly) solar Conditions
00:00 58.6 °F 52.8 °F 30.10 in Calm   2 mph 81% 0.00 in 0 W/m2
00:10 58.6 °F 52.5 °F 30.11 in Calm   3 mph 80% 0.00 in 0 W/m2
00:20 59 °F 52.8 °F 30.11 in Calm   3 mph 80% 0.00 in 0 W/m2
00:30 59 °F 53.2 °F 30.11 in WNW 1 mph 2 mph 81% 0.00 in 0 W/m2
00:40 58.6 °F 52.8 °F 30.11 in NW 1 mph 3 mph 81% 0.00 in 0 W/m2
00:50 58.5 °F 52.6 °F 30.11 in Calm   2 mph 81% 0.00 in 0 W/m2
01:00 58.5 °F 53.3 °F 30.12 in SW 1 mph 2 mph 83% 0.00 in 0 W/m2
01:10 58.5 °F 53.3 °F 30.12 in Calm   2 mph 83% 0.00 in 0 W/m2
01:20 58.5 °F 53.3 °F 30.12 in Calm   2 mph 83% 0.00 in 0 W/m2
01:30 58.5 °F 53.3 °F 30.12 in NNW 1 mph 2 mph 83% 0.00 in 0 W/m2
01:40 58.6 °F 53.5 °F 30.12 in Calm   2 mph 83% 0.00 in 0 W/m2
01:50 58.6 °F 53.8 °F 30.12 in Calm   2 mph 84% 0.00 in 0 W/m2
02:00 58.6 °F 53.8 °F 30.11 in Calm   3 mph 84% 0.00 in 0 W/m2
02:10 58.6 °F 53.8 °F 30.12 in NNE 1 mph 2 mph 84% 0.00 in 0 W/m2
02:20 58.5 °F 53.6 °F 30.12 in Calm   2 mph 84% 0.00 in 0 W/m2
02:30 58.6 °F 53.5 °F 30.12 in Calm   2 mph 83% 0.00 in 0 W/m2
02:40 58.6 °F 53.5 °F 30.12 in Calm   1 mph 83% 0.00 in 0 W/m2
02:50 58.6 °F 53.8 °F 30.12 in Calm   2 mph 84% 0.00 in 0 W/m2
03:00 58.6 °F 53.5 °F 30.11 in Calm   2 mph 83% 0.00 in 0 W/m2
03:10 58.6 °F 54.1 °F 30.11 in West 1 mph 3 mph 85% 0.00 in 0 W/m2
03:20 58.5 °F 54 °F 30.12 in WNW 1 mph 3 mph 85% 0.00 in 0 W/m2
03:30 58.5 °F 54 °F 30.12 in Calm   4 mph 85% 0.00 in 0 W/m2
03:40 58.3 °F 53.8 °F 30.12 in WSW 1 mph 2 mph 85% 0.00 in 0 W/m2
03:50 57.9 °F 53.4 °F 30.12 in WSW 1 mph 2 mph 85% 0.00 in 0 W/m2
04:00 57.7 °F 53.6 °F 30.11 in Calm   2 mph 86% 0.00 in 0 W/m2
04:10 57.6 °F 53.4 °F 30.11 in WNW 1 mph 3 mph 86% 0.00 in 0 W/m2
04:20 57.6 °F 53.4 °F 30.11 in NNW 1 mph 2 mph 86% 0.00 in 0 W/m2
04:30 57.4 °F 53.2 °F 30.11 in NNW 1 mph 2 mph 86% 0.00 in 0 W/m2
04:40 57.1 °F 52.9 °F 30.11 in Calm   2 mph 86% 0.00 in 0 W/m2
04:50 56.8 °F 53.3 °F 30.11 in Calm   2 mph 88% 0.00 in 0 W/m2
05:00 56.5 °F 53 °F 30.12 in Calm     88% 0.00 in 0 W/m2
05:10 56.1 °F 52.6 °F 30.12 in Calm   2 mph 88% 0.00 in 0 W/m2
05:20 55.8 °F 52.3 °F 30.12 in Calm   2 mph 88% 0.00 in 0 W/m2
05:30 55.6 °F 52.1 °F 30.12 in Calm   2 mph 88% 0.00 in 0 W/m2
05:40 55.2 °F 52 °F 30.12 in Calm   2 mph 89% 0.00 in 0 W/m2
05:50 54.9 °F 51.7 °F 30.12 in Calm   2 mph 89% 0.00 in 0 W/m2
06:00 54.9 °F 52 °F 30.12 in Calm   2 mph 90% 0.00 in 7 W/m2
06:10 54.9 °F 52 °F 30.13 in Calm   2 mph 90% 0.00 in 17 W/m2
06:20 55 °F 52.5 °F 30.13 in NE 1 mph 3 mph 91% 0.00 in 28 W/m2
06:30 55.2 °F 52.6 °F 30.13 in NE 1 mph 2 mph 91% 0.00 in 46 W/m2
06:40 55.2 °F 52.6 °F 30.13 in Calm   2 mph 91% 0.00 in 83 W/m2
06:50 55.6 °F 53 °F 30.14 in Calm   2 mph 91% 0.00 in 102 W/m2
07:00 56.1 °F 53.5 °F 30.14 in NE 1 mph 3 mph 91% 0.00 in 126 W/m2
07:10 56.7 °F 53.8 °F 30.14 in ENE 1 mph 3 mph 90% 0.00 in 58 W/m2
07:20 57.4 °F 54.2 °F 30.14 in Calm   4 mph 89% 0.00 in 71 W/m2
07:30 57.9 °F 54.7 °F 30.13 in NNW 1 mph 3 mph 89% 0.00 in 99 W/m2
07:40 58.3 °F 55.4 °F 30.13 in West 2 mph 4 mph 90% 0.00 in 262 W/m2
07:50 58.6 °F 55.7 °F 30.13 in West 2 mph 5 mph 90% 0.00 in 301 W/m2
08:00 59.7 °F 56.8 °F 30.14 in West 3 mph 7 mph 90% 0.00 in 301 W/m2
08:10 61.2 °F 57.6 °F 30.14 in SW 6 mph 9 mph 88% 0.00 in 362 W/m2
08:20 62.2 °F 57.7 °F 30.14 in SW 8 mph 11 mph 85% 0.00 in 392 W/m2
08:30 63.1 °F 57.9 °F 30.14 in SW 5 mph 10 mph 83% 0.00 in 422 W/m2
08:40 64.6 °F 57.5 °F 30.14 in WSW 6 mph 12 mph 78% 0.00 in 452 W/m2
08:50 65.6 °F 57.5 °F 30.14 in West 3 mph 13 mph 75% 0.00 in 459 W/m2
09:00 66.7 °F 58.2 °F 30.14 in WSW 5 mph 10 mph 74% 0.00 in 509 W/m2
09:10 67.5 °F 58.5 °F 30.14 in SW 6 mph 11 mph 73% 0.00 in 537 W/m2
09:20 68 °F 58.6 °F 30.14 in SW 9 mph 15 mph 72% 0.00 in 564 W/m2
09:30 68.5 °F 58.4 °F 30.14 in WSW 7 mph 16 mph 70% 0.00 in 589 W/m2
09:40 69.1 °F 58.1 °F 30.14 in West 6 mph 15 mph 68% 0.00 in 614 W/m2
09:50 69.6 °F 58.2 °F 30.14 in WSW 8 mph 15 mph 67% 0.00 in 638 W/m2
10:00 70.2 °F 57.8 °F 30.14 in WSW 8 mph 15 mph 65% 0.00 in 661 W/m2
10:10 70.5 °F 58.2 °F 30.14 in WSW 7 mph 14 mph 65% 0.00 in 682 W/m2
10:20 70.5 °F 57.3 °F 30.14 in WSW 12 mph 20 mph 63% 0.01 in 702 W/m2
10:30 70.5 °F 56.9 °F 30.14 in WSW 9 mph 20 mph 62% 0.01 in 721 W/m2
10:40 71 °F 57.8 °F 30.14 in WSW 9 mph 18 mph 63% 0.00 in 739 W/m2
10:50 71.8 °F 58.1 °F 30.14 in West 9 mph 18 mph 62% 0.00 in 606 W/m2
11:00 71.8 °F 57.1 °F 30.15 in West 8 mph 19 mph 60% 0.00 in 769 W/m2
11:10 72.1 °F 57.5 °F 30.15 in WSW 10 mph 15 mph 60% 0.00 in 783 W/m2
11:20 72.5 °F 57.8 °F 30.14 in WSW 10 mph 17 mph 60% 0.00 in 794 W/m2
11:30 72.7 °F 58 °F 30.14 in West 10 mph 20 mph 60% 0.00 in 805 W/m2
11:40 72.9 °F 57.7 °F 30.14 in West 10 mph 20 mph 59% 0.00 in 520 W/m2
11:50 72.3 °F 57.7 °F 30.14 in West 8 mph 20 mph 60% 0.00 in 446 W/m2
12:00 71.8 °F 57.1 °F 30.14 in West 7 mph 20 mph 60% 0.00 in 356 W/m2
12:10 71.1 °F 57.4 °F 30.14 in WNW 8 mph 18 mph 62% 0.00 in 281 W/m2
12:20 70.7 °F 57.1 °F 30.14 in WNW 8 mph 15 mph 62% 0.00 in 321 W/m2
12:30 70.5 °F 57.3 °F 30.14 in WNW 6 mph 12 mph 63% 0.00 in 387 W/m2
12:40 70.5 °F 57.3 °F 30.14 in WNW 6 mph 13 mph 63% 0.00 in 300 W/m2
12:50 70 °F 56.8 °F 30.14 in West 9 mph 15 mph 63% 0.00 in 166 W/m2
13:00 69.6 °F 56.5 °F 30.14 in West 8 mph 13 mph 63% 0.00 in 260 W/m2
13:10 69.6 °F 56.9 °F 30.14 in West 3 mph 14 mph 64% 0.00 in 477 W/m2
13:20 70.3 °F 57.1 °F 30.14 in West 6 mph 13 mph 63% 0.00 in 347 W/m2
13:30 70.7 °F 57.5 °F 30.14 in West 7 mph 12 mph 63% 0.00 in 200 W/m2
13:40 70.3 °F 57.1 °F 30.14 in WNW 8 mph 13 mph 63% 0.00 in 196 W/m2
13:50 70 °F 56.8 °F 30.14 in West 7 mph 14 mph 63% 0.00 in 329 W/m2
14:00 70 °F 57.2 °F 30.14 in West 6 mph 17 mph 64% 0.00 in 252 W/m2
14:10 70.3 °F 57.1 °F 30.13 in West 8 mph 16 mph 63% 0.00 in 399 W/m2
14:20 70.5 °F 56.9 °F 30.13 in West 8 mph 15 mph 62% 0.00 in 212 W/m2
14:30 70.5 °F 56.9 °F 30.13 in WNW 8 mph 16 mph 62% 0.00 in 583 W/m2
Knjazevac, Serbia
Compliments of Weather Underground - 2 mb